Terminal Aerodrome Forecast
Issued by NWS Miami, FL

Current Version | Previous Version | Text Only | Print | Product List | Glossary On
Versions: 1 2 3 4 5 6 7 8 9 10 11 12 13 14 15 16 17 18 19 20 21 22 23 24 25 26 27 28 29 30 31 32 33
000
FTUS42 KMFL 202106 AAA
TAFAPF
TAF AMD
KAPF 202106Z 2021/2118 31011KT P6SM SCT040
     FM210100 32008KT P6SM SCT030
     FM211500 01006KT P6SM FEW035=

USA.gov is the U.S. government's official web portal to all federal, state and local government web resources and services.